This is the latest recevied weather packets stored in our database for station/object R8AHC-W5. If no packets are shown the sender has not sent any weather packets the latest 10 day(s).
| Time | Temp. | Humidity | Pressure | Rain* | Wind** | Luminosity | Snow |
|---|---|---|---|---|---|---|---|
| 1778198102 | 15.56° C | 73% | 1010 hPa | - | 2.68 m/s, 81° | - | - |
| 1778194502 | 15.56° C | 72% | 1010 hPa | - | 1.79 m/s, 65° | - | - |
| 1778190902 | 16.11° C | 70% | 1010 hPa | - | 1.34 m/s, 143° | - | - |
| 1778187302 | 16.67° C | 66% | 1010 hPa | - | 2.24 m/s, 139° | - | - |
| 1778183702 | 17.22° C | 64% | 1010 hPa | - | 2.68 m/s, 146° | - | - |
| 1778180102 | 17.78° C | 61% | 1010 hPa | - | 2.24 m/s, 139° | - | - |
| 1778176502 | 17.78° C | 68% | 1011 hPa | - | 2.24 m/s, 129° | - | - |
| 1778172902 | 18.89° C | 65% | 1011 hPa | - | 1.79 m/s, 118° | - | - |
| 1778169302 | 19.44° C | 62% | 1011 hPa | - | 1.79 m/s, 106° | - | - |
| 1778165702 | 20.56° C | 59% | 1011 hPa | - | 1.34 m/s, 104° | - | - |
| 1778162102 | 22.78° C | 55% | 1010 hPa | - | 1.34 m/s, 50° | - | - |
| 1778158502 | 23.33° C | 47% | 1011 hPa | - | 0.45 m/s, 217° | - | - |
| 1778154902 | 23.33° C | 47% | 1011 hPa | - | 1.34 m/s, 233° | - | - |
| 1778151301 | 22.78° C | 46% | 1011 hPa | - | 1.79 m/s, 298° | - | - |
| 1778147702 | 22.78° C | 49% | 1011 hPa | - | 2.24 m/s, 295° | - | - |
| 1778144102 | 22.22° C | 52% | 1011 hPa | - | 2.24 m/s, 290° | - | - |
| 1778140502 | 21.11° C | 56% | 1011 hPa | - | 2.68 m/s, 277° | - | - |
| 1778136902 | 20.56° C | 59% | 1011 hPa | - | 2.68 m/s, 260° | - | - |
| 1778133303 | 19.44° C | 64% | 1011 hPa | - | 2.68 m/s, 251° | - | - |
| 1778129702 | 18.33° C | 68% | 1011 hPa | - | 2.24 m/s, 247° | - | - |
| 1778126102 | 16.67° C | 73% | 1011 hPa | - | 1.34 m/s, 259° | - | - |
| 1778122502 | 15.56° C | 77% | 1011 hPa | - | 0.89 m/s, 285° | - | - |
| 1778118902 | 13.89° C | 83% | 1011 hPa | - | 0.89 m/s, 320° | - | - |
| 1778115302 | 12.78° C | 88% | 1011 hPa | - | 1.34 m/s, 321° | - | - |
| 1778111729 | 12.78° C | 89% | 1011 hPa | - | 0.89 m/s, 315° | - | - |
* Rain since midnight (hover to see other rain measurements)
** Current wind speed in m/s (hover to see current wind gust speed)